createdAt,value
2022-10-13T00:00:54.394Z,1.58
2022-10-13T00:03:21.080Z,1.92
2022-10-13T00:05:49.541Z,0.85
2022-10-13T00:08:19.367Z,1.10
2022-10-13T00:10:47.445Z,1.52
2022-10-13T00:13:14.400Z,1.08
2022-10-13T00:15:42.175Z,1.63
2022-10-13T00:18:09.231Z,1.23
2022-10-13T00:20:36.520Z,1.95
2022-10-13T00:23:03.069Z,1.10
2022-10-13T00:25:29.658Z,1.38
2022-10-13T00:27:56.186Z,1.48
2022-10-13T00:30:22.772Z,1.60
2022-10-13T00:32:49.301Z,1.38
2022-10-13T00:35:15.885Z,1.42
2022-10-13T00:37:42.494Z,1.20
2022-10-13T00:40:09.560Z,1.05
2022-10-13T00:42:36.162Z,0.77
2022-10-13T00:45:17.892Z,1.23
2022-10-13T00:47:47.276Z,1.27
2022-10-13T00:50:17.001Z,1.38
2022-10-13T00:52:44.095Z,2.35
2022-10-13T00:55:12.577Z,1.23
2022-10-13T00:57:40.640Z,1.75
2022-10-13T01:00:08.209Z,2.22
2022-10-13T01:02:36.744Z,1.15
2022-10-13T01:05:05.510Z,2.15
2022-10-13T01:07:32.246Z,1.38
2022-10-13T01:10:01.093Z,2.55
2022-10-13T01:12:52.352Z,1.20
2022-10-13T01:15:41.953Z,1.25
2022-10-13T01:18:14.806Z,1.17
2022-10-13T01:21:00.767Z,1.42
2022-10-13T01:23:41.888Z,1.13
2022-10-13T01:26:56.237Z,0.90
2022-10-13T01:30:00.506Z,2.03
2022-10-13T01:35:17.325Z,1.48
2022-10-13T01:37:49.038Z,2.20
2022-10-13T01:40:25.013Z,1.17
2022-10-13T01:42:58.002Z,1.35
2022-10-13T01:45:30.820Z,1.55
2022-10-13T01:47:58.831Z,1.33
2022-10-13T01:50:25.655Z,1.30
2022-10-13T01:52:53.071Z,1.02
2022-10-13T01:55:19.623Z,1.63
2022-10-13T01:57:46.285Z,1.20
2022-10-13T02:00:16.352Z,1.15
2022-10-13T02:03:01.644Z,1.00
2022-10-13T02:05:49.348Z,1.35
2022-10-13T02:08:26.756Z,1.90
2022-10-13T02:10:59.429Z,1.48
2022-10-13T02:13:28.676Z,1.33
2022-10-13T02:15:57.962Z,1.75
2022-10-13T02:18:34.954Z,1.70
2022-10-13T02:21:03.616Z,1.13
2022-10-13T02:23:30.619Z,1.05
2022-10-13T02:25:57.747Z,1.10
2022-10-13T02:28:24.342Z,1.75
2022-10-13T02:30:51.246Z,2.05
2022-10-13T02:33:18.392Z,1.25
2022-10-13T02:35:44.980Z,1.70
2022-10-13T02:38:11.657Z,1.08
2022-10-13T02:40:38.487Z,1.52
2022-10-13T02:43:05.166Z,0.90
2022-10-13T02:45:31.826Z,1.70
2022-10-13T02:47:58.430Z,1.83
2022-10-13T02:50:24.997Z,1.10
2022-10-13T02:52:51.571Z,1.83
2022-10-13T02:55:18.113Z,1.25
2022-10-13T02:57:44.669Z,1.40
2022-10-13T03:00:11.757Z,1.50
2022-10-13T03:02:38.304Z,1.95
2022-10-13T03:05:05.203Z,1.33
2022-10-13T03:07:31.773Z,0.95
2022-10-13T03:09:58.552Z,0.88
2022-10-13T03:12:25.128Z,1.50
2022-10-13T03:14:51.699Z,1.63
2022-10-13T03:17:18.304Z,1.17
2022-10-13T03:19:44.867Z,2.47
2022-10-13T03:22:14.631Z,1.95
2022-10-13T03:24:41.876Z,1.33
2022-10-13T03:27:08.620Z,1.52
2022-10-13T03:29:35.195Z,1.00
2022-10-13T03:32:07.675Z,1.02
2022-10-13T03:34:34.213Z,1.95
2022-10-13T03:37:00.763Z,1.23
2022-10-13T03:39:27.295Z,1.00
2022-10-13T03:41:53.829Z,1.17
2022-10-13T03:44:20.380Z,1.20
2022-10-13T03:46:46.930Z,1.45
2022-10-13T03:49:13.500Z,1.13
2022-10-13T03:51:40.076Z,1.27
2022-10-13T03:54:06.646Z,1.75
2022-10-13T03:56:33.237Z,1.58
2022-10-13T03:59:00.767Z,1.25
2022-10-13T04:01:29.472Z,1.05
2022-10-13T04:03:57.386Z,1.15
2022-10-13T04:06:25.452Z,0.98
2022-10-13T04:08:52.393Z,0.90
2022-10-13T04:11:19.475Z,1.23
2022-10-13T04:13:46.238Z,1.55
2022-10-13T04:16:24.045Z,1.42
2022-10-13T04:18:58.942Z,1.40
2022-10-13T04:21:26.384Z,1.27
2022-10-13T04:23:57.326Z,0.80
2022-10-13T04:26:25.136Z,0.98
2022-10-13T04:28:54.142Z,1.20
2022-10-13T04:31:24.644Z,1.00
2022-10-13T04:33:51.669Z,0.98
2022-10-13T04:36:19.175Z,1.55
2022-10-13T04:38:46.003Z,2.13
2022-10-13T04:41:13.532Z,1.35
2022-10-13T04:43:40.056Z,1.17
2022-10-13T04:46:14.001Z,1.23
2022-10-13T04:48:41.001Z,1.98
2022-10-13T04:51:10.347Z,1.25
2022-10-13T04:53:37.658Z,1.48
2022-10-13T04:56:07.051Z,1.60
2022-10-13T04:58:33.724Z,1.73
2022-10-13T05:01:00.776Z,0.93
2022-10-13T05:03:27.462Z,1.05
2022-10-13T05:05:54.012Z,2.08
2022-10-13T05:08:21.227Z,1.58
2022-10-13T05:11:00.019Z,0.85
2022-10-13T05:13:27.412Z,0.77
2022-10-13T05:15:54.317Z,1.20
2022-10-13T05:18:20.990Z,1.67
2022-10-13T05:20:47.598Z,1.10
2022-10-13T05:23:15.058Z,1.42
2022-10-13T05:25:41.599Z,0.95
2022-10-13T05:28:08.659Z,1.80
2022-10-13T05:30:35.309Z,1.48
2022-10-13T05:33:01.851Z,1.05
2022-10-13T05:35:28.438Z,2.47
2022-10-13T05:37:54.997Z,1.35
2022-10-13T05:40:21.547Z,0.77
2022-10-13T05:42:51.720Z,1.25
2022-10-13T05:45:19.796Z,0.82
2022-10-13T05:47:46.333Z,1.58
2022-10-13T05:50:12.967Z,1.38
2022-10-13T05:52:39.580Z,1.38
2022-10-13T05:55:09.384Z,1.75
2022-10-13T05:57:41.076Z,1.70
2022-10-13T06:00:15.392Z,1.70
2022-10-13T06:02:59.464Z,1.25
2022-10-13T06:05:27.580Z,1.10
2022-10-13T06:07:55.685Z,1.35
2022-10-13T06:10:22.765Z,1.08
2022-10-13T06:12:49.297Z,1.05
2022-10-13T06:15:15.856Z,1.33
2022-10-13T06:17:42.440Z,0.73
2022-10-13T06:20:10.105Z,1.17
2022-10-13T06:22:37.491Z,1.90
2022-10-13T06:25:05.497Z,1.38
2022-10-13T06:27:32.290Z,1.20
2022-10-13T06:29:59.011Z,1.10
2022-10-13T06:32:25.570Z,1.67
2022-10-13T06:34:52.122Z,1.10
2022-10-13T06:37:21.165Z,1.85
2022-10-13T06:39:50.056Z,1.95
2022-10-13T06:42:16.851Z,1.08
2022-10-13T06:44:43.560Z,1.42
2022-10-13T06:47:10.276Z,2.20
2022-10-13T06:49:36.813Z,1.38
2022-10-13T06:52:04.574Z,1.55
2022-10-13T06:54:31.158Z,1.58
2022-10-13T06:56:57.796Z,1.30
2022-10-13T06:59:26.462Z,1.30
2022-10-13T07:01:53.529Z,1.30
2022-10-13T07:04:20.057Z,1.80
2022-10-13T07:06:46.621Z,1.98
2022-10-13T07:09:13.171Z,1.90
2022-10-13T07:11:39.782Z,2.10
2022-10-13T07:14:06.397Z,1.00
2022-10-13T07:16:32.965Z,4.68
2022-10-13T07:18:59.531Z,5.82
2022-10-13T07:21:26.229Z,3.75
2022-10-13T07:23:52.817Z,5.90
2022-10-13T07:26:19.688Z,7.55
2022-10-13T07:28:46.410Z,12.55
2022-10-13T07:31:15.795Z,12.32
2022-10-13T07:33:44.056Z,17.73
2022-10-13T07:36:11.474Z,10.07
2022-10-13T07:38:38.244Z,9.55
2022-10-13T07:41:06.325Z,12.35
2022-10-13T07:43:33.217Z,9.57
2022-10-13T07:46:01.773Z,12.88
2022-10-13T07:48:28.642Z,8.85
2022-10-13T07:50:55.179Z,9.52
2022-10-13T07:53:21.981Z,8.48
2022-10-13T07:55:48.736Z,8.95
2022-10-13T07:58:15.429Z,6.38
2022-10-13T08:00:42.238Z,9.02
2022-10-13T08:03:08.861Z,10.10
2022-10-13T08:05:37.120Z,9.18
2022-10-13T08:08:03.981Z,7.80
2022-10-13T08:10:30.683Z,9.23
2022-10-13T08:12:57.248Z,9.80
2022-10-13T08:15:23.804Z,8.45
2022-10-13T08:17:50.363Z,5.45
2022-10-13T08:20:16.980Z,6.80
2022-10-13T08:22:43.526Z,7.85
2022-10-13T08:25:10.500Z,6.68
2022-10-13T08:27:50.267Z,7.85
2022-10-13T08:30:18.570Z,6.38
2022-10-13T08:32:45.274Z,6.82
2022-10-13T08:35:13.274Z,4.75
2022-10-13T08:37:39.928Z,9.13
2022-10-13T08:40:07.201Z,7.03
2022-10-13T08:42:34.285Z,5.60
2022-10-13T08:47:53.471Z,5.25
2022-10-13T08:50:23.651Z,8.20
2022-10-13T08:52:54.128Z,7.88
2022-10-13T08:55:44.977Z,7.05
2022-10-13T08:58:33.416Z,10.00
2022-10-13T09:01:08.928Z,9.30
2022-10-13T09:03:43.852Z,6.28
2022-10-13T09:06:18.664Z,6.10
2022-10-13T09:09:07.701Z,8.23
2022-10-13T09:11:37.472Z,8.88
2022-10-13T09:14:09.767Z,8.02
2022-10-13T09:16:38.459Z,9.48
2022-10-13T09:19:21.560Z,8.25
2022-10-13T09:21:53.323Z,7.55
2022-10-13T09:24:21.424Z,9.13
2022-10-13T09:26:49.984Z,8.32
2022-10-13T09:29:22.664Z,10.02
2022-10-13T09:31:49.224Z,10.17
2022-10-13T09:34:24.513Z,8.02
2022-10-13T09:37:01.712Z,7.10
2022-10-13T09:39:29.116Z,6.93
2022-10-13T09:42:26.397Z,8.27
2022-10-13T09:45:02.792Z,6.55
2022-10-13T09:47:30.640Z,8.07
2022-10-13T09:50:16.500Z,10.40
2022-10-13T09:52:44.877Z,5.65
2022-10-13T09:55:32.010Z,5.80
2022-10-13T09:58:06.424Z,8.63
2022-10-13T10:00:32.981Z,7.82
2022-10-13T10:03:19.412Z,7.40
2022-10-13T10:05:54.650Z,7.18
2022-10-13T10:09:02.732Z,7.13
2022-10-13T10:11:35.345Z,7.55
2022-10-13T10:14:13.973Z,7.07
2022-10-13T10:16:46.068Z,5.10
2022-10-13T10:19:51.233Z,7.40
2022-10-13T10:22:37.979Z,7.00
2022-10-13T10:25:41.959Z,7.22
2022-10-13T10:28:31.171Z,5.00
2022-10-13T10:31:19.424Z,6.57
2022-10-13T10:34:03.313Z,6.13
2022-10-13T10:36:37.666Z,5.88
2022-10-13T10:39:46.301Z,6.25
2022-10-13T10:42:40.336Z,5.03
2022-10-13T10:47:44.851Z,6.75
2022-10-13T10:50:15.195Z,4.40
2022-10-13T10:53:03.048Z,5.93
2022-10-13T10:55:42.218Z,5.80
2022-10-13T10:58:23.975Z,5.85
2022-10-13T11:01:05.582Z,5.18
2022-10-13T11:03:41.210Z,5.05
2022-10-13T11:06:24.310Z,4.30
2022-10-13T11:08:50.884Z,4.82
2022-10-13T11:11:24.712Z,7.28
2022-10-13T11:14:06.476Z,4.97
2022-10-13T11:16:54.669Z,4.25
2022-10-13T11:19:41.406Z,5.32
2022-10-13T11:22:07.894Z,6.82
2022-10-13T11:24:38.830Z,7.85
2022-10-13T11:27:08.342Z,7.93
2022-10-13T11:29:58.790Z,6.07
2022-10-13T11:32:25.653Z,7.65
2022-10-13T11:35:10.281Z,6.10
2022-10-13T11:38:06.810Z,7.25
2022-10-13T11:40:52.541Z,6.70
2022-10-13T11:43:53.273Z,5.43
2022-10-13T11:46:23.597Z,7.22
2022-10-13T11:48:58.942Z,7.50
2022-10-13T11:51:59.136Z,4.63
2022-10-13T11:54:36.616Z,7.57
2022-10-13T11:57:04.709Z,7.40
2022-10-13T11:59:37.570Z,5.90
2022-10-13T12:02:09.803Z,5.93
2022-10-13T12:04:36.389Z,5.50
2022-10-13T12:07:05.812Z,6.68
2022-10-13T12:09:33.785Z,5.95
2022-10-13T12:12:15.073Z,6.50
2022-10-13T12:14:47.793Z,4.38
2022-10-13T12:17:39.048Z,6.03
2022-10-13T12:20:35.242Z,5.32
2022-10-13T12:23:01.815Z,5.45
2022-10-13T12:25:29.812Z,5.22
2022-10-13T12:27:58.678Z,6.50
2022-10-13T12:30:28.075Z,6.35
2022-10-13T12:32:57.436Z,3.85
2022-10-13T12:35:26.637Z,3.53
2022-10-13T12:37:54.128Z,3.92
2022-10-13T12:40:21.024Z,7.13
2022-10-13T12:42:48.940Z,3.38
2022-10-13T12:45:21.402Z,4.57
2022-10-13T12:47:53.686Z,3.70
2022-10-13T12:50:23.106Z,5.32
2022-10-13T12:52:54.572Z,4.50
2022-10-13T12:55:22.603Z,3.17
2022-10-13T12:57:50.573Z,4.85
2022-10-13T13:00:17.269Z,6.28
2022-10-13T13:02:51.375Z,5.82
2022-10-13T13:05:41.116Z,3.47
2022-10-13T13:08:29.718Z,3.78
2022-10-13T13:11:00.612Z,3.92
2022-10-13T13:13:27.693Z,3.05
2022-10-13T13:15:54.361Z,3.78
2022-10-13T13:18:31.471Z,3.95
2022-10-13T13:20:58.428Z,3.60
2022-10-13T13:23:25.037Z,4.05
2022-10-13T13:26:10.856Z,3.15
2022-10-13T13:28:47.105Z,3.10
2022-10-13T13:31:15.097Z,3.60
2022-10-13T13:33:41.765Z,3.22
2022-10-13T13:36:23.217Z,2.80
2022-10-13T13:38:50.069Z,4.03
2022-10-13T13:41:17.159Z,3.45
2022-10-13T13:43:43.922Z,2.90
2022-10-13T13:46:18.437Z,4.00
2022-10-13T13:48:45.121Z,4.10
2022-10-13T13:51:11.700Z,3.20
2022-10-13T13:53:38.252Z,3.38
2022-10-13T13:56:05.235Z,2.42
2022-10-13T13:58:31.830Z,3.45
2022-10-13T14:00:59.353Z,2.53
2022-10-13T14:03:25.889Z,3.45
2022-10-13T14:05:52.420Z,3.30
2022-10-13T14:08:19.092Z,4.00
2022-10-13T14:10:45.644Z,3.58
2022-10-13T14:13:12.236Z,3.25
2022-10-13T14:15:38.785Z,3.63
2022-10-13T14:18:05.375Z,2.53
2022-10-13T14:20:31.926Z,3.28
2022-10-13T14:22:58.456Z,3.35
2022-10-13T14:25:25.148Z,2.83
2022-10-13T14:27:51.995Z,2.88
2022-10-13T14:30:18.527Z,2.67
2022-10-13T14:32:45.124Z,2.53
2022-10-13T14:35:11.748Z,3.67
2022-10-13T14:37:38.928Z,2.97
2022-10-13T14:40:06.185Z,3.38
2022-10-13T14:42:32.760Z,2.22
2022-10-13T14:44:59.314Z,2.17
2022-10-13T14:47:25.892Z,1.92
2022-10-13T14:49:52.424Z,2.88
2022-10-13T14:52:18.961Z,2.80
2022-10-13T14:54:45.820Z,3.25
2022-10-13T14:57:15.967Z,4.30
2022-10-13T14:59:43.410Z,2.33
2022-10-13T15:02:13.908Z,2.60
2022-10-13T15:04:40.516Z,2.50
2022-10-13T15:07:07.054Z,2.00
2022-10-13T15:09:45.390Z,2.33
2022-10-13T15:12:19.546Z,3.53
2022-10-13T15:14:46.259Z,2.85
2022-10-13T15:17:12.810Z,4.80
2022-10-13T15:19:39.351Z,1.75
2022-10-13T15:22:05.870Z,2.45
2022-10-13T15:24:32.424Z,2.88
2022-10-13T15:26:58.971Z,2.33
2022-10-13T15:29:25.518Z,3.63
2022-10-13T15:31:52.081Z,3.10
2022-10-13T15:34:18.613Z,2.70
2022-10-13T15:36:45.450Z,3.70
2022-10-13T15:39:12.093Z,2.80
2022-10-13T15:41:38.632Z,2.60
2022-10-13T15:44:05.213Z,2.15
2022-10-13T15:46:31.800Z,3.40
2022-10-13T15:48:59.923Z,3.58
2022-10-13T15:51:27.101Z,4.63
2022-10-13T15:53:55.256Z,3.10
2022-10-13T15:56:22.036Z,2.65
2022-10-13T15:58:48.557Z,3.70
2022-10-13T16:01:15.425Z,2.30
2022-10-13T16:03:42.496Z,3.60
2022-10-13T16:06:11.452Z,3.85
2022-10-13T16:08:44.075Z,3.17
2022-10-13T16:11:12.274Z,2.57
2022-10-13T16:13:39.352Z,4.13
2022-10-13T16:16:06.081Z,2.45
2022-10-13T16:18:35.602Z,2.70
2022-10-13T16:21:28.704Z,4.57
2022-10-13T16:23:55.321Z,2.50
2022-10-13T16:26:22.332Z,2.08
2022-10-13T16:28:48.936Z,3.10
2022-10-13T16:31:16.961Z,3.58
2022-10-13T16:33:44.623Z,1.92
2022-10-13T16:36:13.832Z,4.00
2022-10-13T16:38:40.512Z,2.78
2022-10-13T16:41:10.455Z,2.15
2022-10-13T16:43:37.012Z,2.10
2022-10-13T16:46:04.658Z,2.35
2022-10-13T16:48:32.714Z,4.95
2022-10-13T16:51:01.636Z,2.78
2022-10-13T16:53:28.291Z,2.35
2022-10-13T16:55:54.830Z,2.78
2022-10-13T16:58:21.416Z,3.35
2022-10-13T17:00:48.059Z,3.20
2022-10-13T17:03:14.671Z,2.00
2022-10-13T17:05:41.275Z,1.80
2022-10-13T17:08:07.838Z,2.35
2022-10-13T17:10:35.042Z,3.40
2022-10-13T17:13:01.617Z,1.95
2022-10-13T17:15:28.253Z,2.30
2022-10-13T17:17:55.034Z,2.72
2022-10-13T17:20:21.588Z,3.13
2022-10-13T17:22:48.165Z,1.73
2022-10-13T17:25:14.844Z,2.55
2022-10-13T17:27:41.393Z,2.58
2022-10-13T17:30:08.504Z,1.92
2022-10-13T17:32:38.759Z,2.13
2022-10-13T17:35:06.204Z,1.55
2022-10-13T17:37:32.770Z,2.00
2022-10-13T17:39:59.315Z,2.83
2022-10-13T17:42:25.844Z,2.90
2022-10-13T17:44:52.438Z,1.83
2022-10-13T17:47:19.393Z,2.97
2022-10-13T17:49:46.133Z,2.35
2022-10-13T17:52:12.680Z,3.95
2022-10-13T17:54:39.330Z,2.03
2022-10-13T17:57:05.981Z,2.80
2022-10-13T17:59:32.661Z,1.90
2022-10-13T18:01:59.408Z,2.50
2022-10-13T18:04:28.861Z,1.90
2022-10-13T18:06:55.429Z,2.63
2022-10-13T18:09:24.263Z,2.65
2022-10-13T18:11:52.870Z,2.58
2022-10-13T18:14:20.729Z,2.83
2022-10-13T18:16:47.449Z,2.08
2022-10-13T18:19:14.098Z,1.42
2022-10-13T18:21:40.619Z,1.52
2022-10-13T18:24:08.575Z,3.60
2022-10-13T18:26:35.755Z,2.42
2022-10-13T18:29:03.437Z,2.88
2022-10-13T18:31:32.307Z,1.48
2022-10-13T18:34:00.754Z,1.50
2022-10-13T18:36:29.822Z,3.75
2022-10-13T18:39:02.049Z,2.65
2022-10-13T18:41:28.632Z,3.05
2022-10-13T18:43:55.360Z,2.25
2022-10-13T18:46:21.968Z,3.28
2022-10-13T18:48:48.547Z,2.78
2022-10-13T18:51:17.799Z,2.08
2022-10-13T18:53:46.950Z,1.42
2022-10-13T18:56:15.609Z,3.00
2022-10-13T18:58:42.177Z,1.60
2022-10-13T19:01:11.176Z,1.42
2022-10-13T19:03:39.197Z,2.13
2022-10-13T19:06:08.061Z,3.53
2022-10-13T19:08:34.832Z,2.78
2022-10-13T19:11:01.778Z,2.30
2022-10-13T19:13:28.312Z,4.28
2022-10-13T19:16:01.673Z,1.25
2022-10-13T19:20:54.945Z,2.60
2022-10-13T19:23:22.061Z,2.10
2022-10-13T19:25:48.761Z,2.00
2022-10-13T19:28:15.410Z,2.13
2022-10-13T19:30:42.230Z,1.27
2022-10-13T19:33:09.467Z,1.35
2022-10-13T19:35:43.655Z,1.27
2022-10-13T19:38:10.293Z,1.38
2022-10-13T19:40:41.462Z,1.38
2022-10-13T19:43:09.535Z,1.42
2022-10-13T19:45:36.165Z,1.00
2022-10-13T19:48:02.704Z,2.20
2022-10-13T19:50:29.236Z,1.83
2022-10-13T19:52:55.876Z,1.30
2022-10-13T19:55:22.418Z,2.88
2022-10-13T19:57:49.109Z,2.53
2022-10-13T20:00:15.997Z,1.50
2022-10-13T20:02:42.557Z,1.38
2022-10-13T20:05:09.248Z,2.15
2022-10-13T20:07:35.894Z,2.20
2022-10-13T20:10:02.433Z,1.88
2022-10-13T20:12:29.444Z,1.10
2022-10-13T20:14:56.004Z,2.20
2022-10-13T20:17:22.956Z,1.77
2022-10-13T20:19:49.960Z,1.40
2022-10-13T20:22:16.523Z,1.48
2022-10-13T20:24:44.733Z,2.35
2022-10-13T20:27:11.330Z,1.55
2022-10-13T20:29:38.042Z,2.25
2022-10-13T20:32:04.701Z,1.85
2022-10-13T20:34:31.358Z,1.63
2022-10-13T20:36:57.895Z,1.75
2022-10-13T20:39:24.449Z,1.95
2022-10-13T20:41:51.040Z,3.50
2022-10-13T20:44:17.631Z,1.00
2022-10-13T20:46:44.217Z,1.88
2022-10-13T20:49:12.353Z,1.55
2022-10-13T20:51:40.070Z,0.95
2022-10-13T20:54:06.824Z,1.23
2022-10-13T20:56:34.056Z,1.52
2022-10-13T20:59:05.329Z,2.00
2022-10-13T21:01:32.615Z,1.38
2022-10-13T21:03:59.151Z,1.35
2022-10-13T21:06:26.184Z,1.70
2022-10-13T21:08:53.323Z,1.00
2022-10-13T21:11:21.987Z,1.58
2022-10-13T21:13:49.516Z,1.50
2022-10-13T21:16:22.201Z,1.27
2022-10-13T21:18:50.831Z,1.30
2022-10-13T21:21:22.105Z,1.73
2022-10-13T21:23:52.504Z,1.63
2022-10-13T21:26:21.834Z,1.23
2022-10-13T21:28:49.296Z,0.55
2022-10-13T21:31:16.614Z,1.90
2022-10-13T21:33:43.804Z,1.50
2022-10-13T21:36:18.861Z,1.42
2022-10-13T21:38:46.179Z,1.48
2022-10-13T21:41:14.128Z,1.05
2022-10-13T21:43:40.971Z,1.48
2022-10-13T21:46:12.301Z,1.35
2022-10-13T21:48:39.225Z,0.98
2022-10-13T21:51:18.458Z,1.20
2022-10-13T21:53:52.172Z,1.40
2022-10-13T21:56:19.399Z,1.55
2022-10-13T21:58:46.258Z,1.15
2022-10-13T22:01:13.048Z,1.10
2022-10-13T22:03:41.549Z,2.05
2022-10-13T22:06:17.631Z,0.90
2022-10-13T22:08:46.478Z,1.23
2022-10-13T22:11:13.425Z,1.83
2022-10-13T22:13:40.057Z,0.90
2022-10-13T22:16:10.296Z,0.77
2022-10-13T22:18:36.836Z,0.60
2022-10-13T22:21:08.475Z,1.00
2022-10-13T22:23:35.156Z,1.50
2022-10-13T22:26:01.699Z,0.95
2022-10-13T22:28:30.381Z,1.45
2022-10-13T22:31:07.421Z,1.13
2022-10-13T22:33:35.798Z,1.00
2022-10-13T22:36:09.903Z,0.50
2022-10-13T22:38:36.604Z,1.20
2022-10-13T22:41:04.851Z,0.75
2022-10-13T22:43:31.958Z,0.75
2022-10-13T22:45:58.812Z,0.98
2022-10-13T22:48:25.352Z,0.77
2022-10-13T22:50:52.261Z,1.55
2022-10-13T22:53:18.801Z,1.00
2022-10-13T22:55:45.372Z,0.70
2022-10-13T22:58:11.909Z,0.85
2022-10-13T23:00:39.186Z,0.75
2022-10-13T23:03:06.140Z,1.00
2022-10-13T23:05:32.734Z,0.98
2022-10-13T23:07:59.312Z,0.60
2022-10-13T23:10:25.903Z,1.17
2022-10-13T23:12:52.476Z,0.85
2022-10-13T23:15:19.041Z,1.10
2022-10-13T23:17:45.578Z,1.05
2022-10-13T23:20:12.369Z,0.65
2022-10-13T23:22:38.901Z,0.90
2022-10-13T23:25:05.724Z,1.17
2022-10-13T23:27:32.284Z,0.63
2022-10-13T23:29:58.809Z,0.80
2022-10-13T23:32:25.359Z,0.70
2022-10-13T23:34:51.895Z,0.98
2022-10-13T23:37:18.684Z,0.77
2022-10-13T23:39:45.420Z,1.23
2022-10-13T23:42:11.960Z,1.20
2022-10-13T23:44:38.512Z,1.52
2022-10-13T23:47:05.252Z,0.93
2022-10-13T23:49:31.813Z,0.65
2022-10-13T23:51:58.352Z,1.00
2022-10-13T23:54:24.883Z,0.82
2022-10-13T23:56:51.473Z,0.93
2022-10-13T23:59:18.008Z,0.88
